createdAt,value
2023-02-14T00:01:33.512Z,10.03
2023-02-14T00:04:01.786Z,9.60
2023-02-14T00:06:35.262Z,8.63
2023-02-14T00:09:03.792Z,9.20
2023-02-14T00:11:31.773Z,26.63
2023-02-14T00:14:17.785Z,25.90
2023-02-14T00:16:46.049Z,26.50
2023-02-14T00:19:15.922Z,26.13
2023-02-14T00:21:45.743Z,23.93
2023-02-14T00:24:15.809Z,23.93
2023-02-14T00:26:44.290Z,26.40
2023-02-14T00:29:14.437Z,26.57
2023-02-14T00:31:43.143Z,9.77
2023-02-14T00:34:12.164Z,10.00
2023-02-14T00:36:40.682Z,10.70
2023-02-14T00:39:12.695Z,9.40
2023-02-14T00:41:41.153Z,10.60
2023-02-14T00:44:10.297Z,10.97
2023-02-14T00:46:38.687Z,9.90
2023-02-14T00:49:06.887Z,9.37
2023-02-14T00:51:34.952Z,9.30
2023-02-14T00:54:03.419Z,8.90
2023-02-14T00:56:33.379Z,10.10
2023-02-14T00:59:01.402Z,9.67
2023-02-14T01:01:29.621Z,9.40
2023-02-14T01:03:58.976Z,9.60
2023-02-14T01:06:26.980Z,9.50
2023-02-14T01:08:54.959Z,9.90
2023-02-14T01:11:25.200Z,9.30
2023-02-14T01:13:58.820Z,8.87
2023-02-14T01:16:28.878Z,8.33
2023-02-14T01:18:57.357Z,8.87
2023-02-14T01:21:26.969Z,8.07
2023-02-14T01:23:57.614Z,7.47
2023-02-14T01:26:27.290Z,8.97
2023-02-14T01:28:56.892Z,7.97
2023-02-14T01:31:26.726Z,8.80
2023-02-14T01:33:55.882Z,7.60
2023-02-14T01:36:25.792Z,7.30
2023-02-14T01:38:55.914Z,7.00
2023-02-14T01:41:25.659Z,7.70
2023-02-14T01:43:58.931Z,8.03
2023-02-14T01:46:29.157Z,6.97
2023-02-14T01:49:02.325Z,7.90
2023-02-14T01:51:33.462Z,6.50
2023-02-14T01:54:02.388Z,7.20
2023-02-14T01:56:35.451Z,6.90
2023-02-14T01:59:09.274Z,7.10
2023-02-14T02:01:37.625Z,9.60
2023-02-14T02:04:11.035Z,8.57
2023-02-14T02:06:42.072Z,12.43
2023-02-14T02:09:15.123Z,25.23
2023-02-14T02:11:43.734Z,27.03
2023-02-14T02:14:16.026Z,26.97
2023-02-14T02:17:17.246Z,25.73
2023-02-14T02:20:22.761Z,26.53
2023-02-14T02:23:45.045Z,27.17
2023-02-14T02:26:42.768Z,26.03
2023-02-14T02:29:33.640Z,25.40
2023-02-14T02:32:36.476Z,23.50
2023-02-14T02:35:26.512Z,22.33
2023-02-14T02:38:05.850Z,5.87
2023-02-14T02:40:48.294Z,6.33
2023-02-14T02:43:29.221Z,6.07
2023-02-14T02:46:19.591Z,18.13
2023-02-14T02:48:55.574Z,17.97
2023-02-14T02:51:50.802Z,17.93
2023-02-14T02:54:25.800Z,19.30
2023-02-14T02:56:58.765Z,19.50
2023-02-14T02:59:30.787Z,20.17
2023-02-14T03:02:03.342Z,18.87
2023-02-14T03:04:53.152Z,19.03
2023-02-14T03:07:36.963Z,18.40
2023-02-14T03:10:10.411Z,19.50
2023-02-14T03:13:11.113Z,21.17
2023-02-14T03:16:12.112Z,22.93
2023-02-14T03:19:06.740Z,21.40
2023-02-14T03:21:44.580Z,20.30
2023-02-14T03:24:25.886Z,20.50
2023-02-14T03:27:00.851Z,20.17
2023-02-14T03:29:37.406Z,19.77
2023-02-14T03:32:12.566Z,20.20
2023-02-14T03:34:53.726Z,21.67
2023-02-14T03:37:27.521Z,21.30
2023-02-14T03:40:05.751Z,23.00
2023-02-14T03:42:38.996Z,23.47
2023-02-14T03:45:12.093Z,22.67
2023-02-14T03:47:42.313Z,23.27
2023-02-14T03:50:14.559Z,22.07
2023-02-14T03:52:44.841Z,20.03
2023-02-14T03:55:16.511Z,18.97
2023-02-14T03:57:51.208Z,18.47
2023-02-14T04:00:20.287Z,16.30
2023-02-14T04:02:52.483Z,15.90
2023-02-14T04:05:26.165Z,14.53
2023-02-14T04:07:55.928Z,15.00
2023-02-14T04:10:26.463Z,12.43
2023-02-14T04:12:54.555Z,11.40
2023-02-14T04:15:22.841Z,11.33
2023-02-14T04:18:08.382Z,10.30
2023-02-14T04:20:37.226Z,9.80
2023-02-14T04:23:05.248Z,9.70
2023-02-14T04:25:34.589Z,2.77
2023-02-14T04:28:02.611Z,2.70
2023-02-14T04:30:30.656Z,2.40
2023-02-14T04:32:58.644Z,9.40
2023-02-14T04:35:26.778Z,11.00
2023-02-14T04:37:54.776Z,9.93
2023-02-14T04:40:23.031Z,10.07
2023-02-14T04:42:52.377Z,10.50
2023-02-14T04:45:20.483Z,10.80
2023-02-14T04:47:48.607Z,10.20
2023-02-14T04:50:16.672Z,10.47
2023-02-14T04:52:44.840Z,9.70
2023-02-14T04:55:13.011Z,9.77
2023-02-14T04:57:41.076Z,9.60
2023-02-14T05:00:11.551Z,9.13
2023-02-14T05:02:39.551Z,9.07
2023-02-14T05:05:08.531Z,9.00
2023-02-14T05:07:36.515Z,8.80
2023-02-14T05:10:04.980Z,8.10
2023-02-14T05:12:33.202Z,8.33
2023-02-14T05:15:01.217Z,8.70
2023-02-14T05:17:30.533Z,9.40
2023-02-14T05:19:58.520Z,9.97
2023-02-14T05:22:26.682Z,9.07
2023-02-14T05:24:54.658Z,8.87
2023-02-14T05:27:22.699Z,9.13
2023-02-14T05:29:50.748Z,9.23
2023-02-14T05:32:18.781Z,8.00
2023-02-14T05:34:48.104Z,8.50
2023-02-14T05:37:16.154Z,8.73
2023-02-14T05:39:44.098Z,9.33
2023-02-14T05:42:12.069Z,8.97
2023-02-14T05:44:40.134Z,8.93
2023-02-14T05:47:08.079Z,9.70
2023-02-14T05:49:36.375Z,9.93
2023-02-14T05:52:06.151Z,8.53
2023-02-14T05:54:34.155Z,8.97
2023-02-14T05:57:02.211Z,8.80
2023-02-14T05:59:30.207Z,8.40
2023-02-14T06:01:58.210Z,9.50
2023-02-14T06:04:26.455Z,8.90
2023-02-14T06:06:54.615Z,8.60
2023-02-14T06:09:23.963Z,9.53
2023-02-14T06:11:53.753Z,9.20
2023-02-14T06:14:23.322Z,11.73
2023-02-14T06:16:51.785Z,10.47
2023-02-14T06:19:20.077Z,11.97
2023-02-14T06:21:48.315Z,11.70
2023-02-14T06:24:16.436Z,12.63
2023-02-14T06:26:45.878Z,12.30
2023-02-14T06:29:13.856Z,11.63
2023-02-14T06:31:42.063Z,11.60
2023-02-14T06:34:10.319Z,12.50
2023-02-14T06:36:38.752Z,12.23
2023-02-14T06:39:06.726Z,12.50
2023-02-14T06:41:34.732Z,10.97
2023-02-14T06:44:06.130Z,10.77
2023-02-14T06:46:34.170Z,10.60
2023-02-14T06:49:02.189Z,10.17
2023-02-14T06:51:30.187Z,11.87
2023-02-14T06:53:58.283Z,11.10
2023-02-14T06:56:26.315Z,11.73
2023-02-14T06:58:54.287Z,11.87
2023-02-14T07:01:23.653Z,12.57
2023-02-14T07:03:51.829Z,12.43
2023-02-14T07:06:19.955Z,12.40
2023-02-14T07:08:48.031Z,13.93
2023-02-14T07:11:16.089Z,13.10
2023-02-14T07:13:44.940Z,12.77
2023-02-14T07:16:13.072Z,11.53
2023-02-14T07:18:42.499Z,11.90
2023-02-14T07:21:10.517Z,12.53
2023-02-14T07:23:38.636Z,12.50
2023-02-14T07:26:06.910Z,12.73
2023-02-14T07:28:35.005Z,12.70
2023-02-14T07:31:03.614Z,11.63
2023-02-14T07:33:31.950Z,12.57
2023-02-14T07:36:05.619Z,14.87
2023-02-14T07:38:33.609Z,5.63
2023-02-14T07:41:01.851Z,6.30
2023-02-14T07:43:29.948Z,4.97
2023-02-14T07:45:58.075Z,5.53
2023-02-14T07:48:26.891Z,7.00
2023-02-14T07:50:57.993Z,7.33
2023-02-14T07:53:27.754Z,7.80
2023-02-14T07:55:55.916Z,8.20
2023-02-14T07:58:24.073Z,9.30
2023-02-14T08:00:52.457Z,9.23
2023-02-14T08:03:20.446Z,9.13
2023-02-14T08:05:57.131Z,9.83
2023-02-14T08:08:28.662Z,11.73
2023-02-14T08:10:56.906Z,12.03
2023-02-14T08:13:23.990Z,12.80
2023-02-14T08:16:07.649Z,28.33
2023-02-14T08:18:37.714Z,35.57
2023-02-14T08:21:07.048Z,35.30
2023-02-14T08:23:36.865Z,35.00
2023-02-14T08:26:05.119Z,35.93
2023-02-14T08:28:33.550Z,37.80
2023-02-14T08:31:01.946Z,35.93
2023-02-14T08:33:30.365Z,33.97
2023-02-14T08:35:58.482Z,32.70
2023-02-14T08:38:26.523Z,31.67
2023-02-14T08:40:56.138Z,30.03
2023-02-14T08:43:24.252Z,32.43
2023-02-14T08:45:56.284Z,35.93
2023-02-14T08:48:26.712Z,39.83
2023-02-14T08:50:54.703Z,36.27
2023-02-14T08:53:23.133Z,37.60
2023-02-14T08:55:51.109Z,40.90
2023-02-14T08:58:20.498Z,16.70
2023-02-14T09:00:48.483Z,16.17
2023-02-14T09:03:16.511Z,16.07
2023-02-14T09:05:44.560Z,16.23
2023-02-14T09:08:12.569Z,22.27
2023-02-14T09:10:40.588Z,18.40
2023-02-14T09:13:08.591Z,15.90
2023-02-14T09:15:38.031Z,22.67
2023-02-14T09:18:06.220Z,19.30
2023-02-14T09:20:34.287Z,21.27
2023-02-14T09:23:02.283Z,21.50
2023-02-14T09:25:30.384Z,22.07
2023-02-14T09:27:58.372Z,21.90
2023-02-14T09:30:26.476Z,42.47
2023-02-14T09:32:56.113Z,42.20
2023-02-14T09:35:41.602Z,40.70
2023-02-14T09:38:17.956Z,41.80
2023-02-14T09:40:46.481Z,40.70
2023-02-14T09:43:19.521Z,40.47
2023-02-14T09:45:52.548Z,39.37
2023-02-14T09:48:28.351Z,40.60
2023-02-14T09:50:59.747Z,38.40
2023-02-14T09:53:30.281Z,40.67
2023-02-14T09:56:07.730Z,38.57
2023-02-14T09:58:41.646Z,29.03
2023-02-14T10:01:16.748Z,26.37
2023-02-14T10:03:58.963Z,30.57
2023-02-14T10:06:49.902Z,25.43
2023-02-14T10:09:50.193Z,42.27
2023-02-14T10:12:23.882Z,41.63
2023-02-14T10:14:54.108Z,41.27
2023-02-14T10:17:29.488Z,41.33
2023-02-14T10:20:03.602Z,38.67
2023-02-14T10:22:42.295Z,40.77
2023-02-14T10:25:21.940Z,41.47
2023-02-14T10:27:50.303Z,43.13
2023-02-14T10:30:21.292Z,44.40
2023-02-14T10:32:51.917Z,42.43
2023-02-14T10:35:36.674Z,40.90
2023-02-14T10:38:17.610Z,44.00
2023-02-14T10:41:02.610Z,44.67
2023-02-14T10:43:38.144Z,51.33
2023-02-14T10:46:16.510Z,45.13
2023-02-14T10:48:54.741Z,45.43
2023-02-14T10:51:33.513Z,47.30
2023-02-14T10:54:14.996Z,40.37
2023-02-14T10:56:46.752Z,45.80
2023-02-14T10:59:23.378Z,42.87
2023-02-14T11:01:54.173Z,42.10
2023-02-14T11:04:24.683Z,39.60
2023-02-14T11:06:54.544Z,39.90
2023-02-14T11:09:22.912Z,38.80
2023-02-14T11:11:54.204Z,41.93
2023-02-14T11:14:26.853Z,39.93
2023-02-14T11:16:56.493Z,169.77
2023-02-14T11:19:27.025Z,16.80
2023-02-14T11:21:58.018Z,16.87
2023-02-14T11:24:33.565Z,17.40
2023-02-14T11:27:04.835Z,17.43
2023-02-14T11:29:37.391Z,17.40
2023-02-14T11:32:10.356Z,17.40
2023-02-14T11:34:41.092Z,16.90
2023-02-14T11:37:28.416Z,17.10
2023-02-14T11:39:59.102Z,17.30
2023-02-14T11:42:54.582Z,17.67
2023-02-14T11:45:32.325Z,25.50
2023-02-14T11:48:19.991Z,17.20
2023-02-14T11:50:58.439Z,18.40
2023-02-14T11:53:32.819Z,17.30
2023-02-14T11:56:01.118Z,16.60
2023-02-14T11:58:37.569Z,20.90
2023-02-14T12:01:06.384Z,19.30
2023-02-14T12:03:40.870Z,19.33
2023-02-14T12:06:09.048Z,21.13
2023-02-14T12:08:39.528Z,20.40
2023-02-14T12:11:19.102Z,21.73
2023-02-14T12:13:54.663Z,19.83
2023-02-14T12:16:28.387Z,22.33
2023-02-14T12:19:00.702Z,19.37
2023-02-14T12:21:45.310Z,17.80
2023-02-14T12:24:21.470Z,19.23
2023-02-14T12:26:57.118Z,19.50
2023-02-14T12:29:31.332Z,21.13
2023-02-14T12:32:02.683Z,19.87
2023-02-14T12:34:31.251Z,20.30
2023-02-14T12:37:13.158Z,20.23
2023-02-14T12:39:59.963Z,21.07
2023-02-14T12:42:43.814Z,19.47
2023-02-14T12:45:21.030Z,19.63
2023-02-14T12:48:01.225Z,17.80
2023-02-14T12:50:44.908Z,23.00
2023-02-14T12:53:32.101Z,21.60
2023-02-14T12:56:08.257Z,21.60
2023-02-14T12:58:45.059Z,27.87
2023-02-14T13:01:39.289Z,22.10
2023-02-14T13:04:29.710Z,20.17
2023-02-14T13:07:05.813Z,19.57
2023-02-14T13:09:42.357Z,22.37
2023-02-14T13:12:29.745Z,21.83
2023-02-14T13:15:12.813Z,24.57
2023-02-14T13:17:46.008Z,21.60
2023-02-14T13:20:42.546Z,25.20
2023-02-14T13:23:16.765Z,23.30
2023-02-14T13:25:50.680Z,30.27
2023-02-14T13:28:22.498Z,27.27
2023-02-14T13:30:50.766Z,23.27
2023-02-14T13:33:34.943Z,21.00
2023-02-14T13:36:07.795Z,21.93
2023-02-14T13:38:44.794Z,24.00
2023-02-14T13:41:14.158Z,20.17
2023-02-14T13:43:56.317Z,32.67
2023-02-14T13:46:53.166Z,24.57
2023-02-14T13:49:31.807Z,29.50
2023-02-14T13:52:03.628Z,39.07
2023-02-14T13:54:38.760Z,25.00
2023-02-14T13:57:26.944Z,23.20
2023-02-14T14:00:25.439Z,43.13
2023-02-14T14:02:55.040Z,31.27
2023-02-14T14:06:02.608Z,44.07
2023-02-14T14:08:45.858Z,35.13
2023-02-14T14:12:01.852Z,38.43
2023-02-14T14:14:39.906Z,37.83
2023-02-14T14:17:27.586Z,33.50
2023-02-14T14:20:00.439Z,41.27
2023-02-14T14:22:29.785Z,38.60
2023-02-14T14:25:00.622Z,32.10
2023-02-14T14:27:33.032Z,40.53
2023-02-14T14:30:02.758Z,39.33
2023-02-14T14:32:34.510Z,22.47
2023-02-14T14:35:05.076Z,20.73
2023-02-14T14:37:35.358Z,24.20
2023-02-14T14:40:06.081Z,23.60
2023-02-14T14:42:38.721Z,23.70
2023-02-14T14:45:10.722Z,23.60
2023-02-14T14:47:43.985Z,25.23
2023-02-14T14:50:18.718Z,21.30
2023-02-14T14:52:49.865Z,21.97
2023-02-14T14:55:21.870Z,23.00
2023-02-14T14:57:52.539Z,23.20
2023-02-14T15:00:24.379Z,23.97
2023-02-14T15:03:14.774Z,25.70
2023-02-14T15:05:45.602Z,24.97
2023-02-14T15:08:18.122Z,22.50
2023-02-14T15:10:50.779Z,22.87
2023-02-14T15:13:36.500Z,21.43
2023-02-14T15:16:04.784Z,25.47
2023-02-14T15:18:34.271Z,25.07
2023-02-14T15:21:10.754Z,25.27
2023-02-14T15:23:38.819Z,24.10
2023-02-14T15:26:07.020Z,25.13
2023-02-14T15:28:38.546Z,24.20
2023-02-14T15:31:07.970Z,25.97
2023-02-14T15:33:37.974Z,22.93
2023-02-14T15:36:10.100Z,21.77
2023-02-14T15:38:42.034Z,27.20
2023-02-14T15:41:11.163Z,23.73
2023-02-14T15:43:40.081Z,24.47
2023-02-14T15:46:21.197Z,22.10
2023-02-14T15:48:51.583Z,19.10
2023-02-14T15:51:22.530Z,18.90
2023-02-14T15:53:54.263Z,19.97
2023-02-14T15:56:26.069Z,19.70
2023-02-14T15:59:00.873Z,18.90
2023-02-14T16:01:29.870Z,18.17
2023-02-14T16:04:02.693Z,19.87
2023-02-14T16:06:34.530Z,20.63
2023-02-14T16:09:03.649Z,19.00
2023-02-14T16:11:35.482Z,22.57
2023-02-14T16:14:22.178Z,20.13
2023-02-14T16:17:03.933Z,17.90
2023-02-14T16:19:41.490Z,18.03
2023-02-14T16:22:10.790Z,18.73
2023-02-14T16:24:38.974Z,18.57
2023-02-14T16:27:13.277Z,17.47
2023-02-14T16:29:41.567Z,17.20
2023-02-14T16:32:16.965Z,19.80
2023-02-14T16:34:48.420Z,17.80
2023-02-14T16:37:22.352Z,20.20
2023-02-14T16:39:51.186Z,18.13
2023-02-14T16:42:20.156Z,24.60
2023-02-14T16:44:48.637Z,19.37
2023-02-14T16:47:18.402Z,18.77
2023-02-14T16:49:48.665Z,18.67
2023-02-14T16:52:20.676Z,19.03
2023-02-14T16:54:49.873Z,19.10
2023-02-14T16:57:21.581Z,19.60
2023-02-14T16:59:50.353Z,18.90
2023-02-14T17:02:21.546Z,19.70
2023-02-14T17:04:50.956Z,22.10
2023-02-14T17:07:19.076Z,23.67
2023-02-14T17:09:51.909Z,27.10
2023-02-14T17:12:30.376Z,25.53
2023-02-14T17:15:02.978Z,23.50
2023-02-14T17:17:31.485Z,24.17
2023-02-14T17:20:00.881Z,23.90
2023-02-14T17:22:28.840Z,24.20
2023-02-14T17:24:57.262Z,24.30
2023-02-14T17:27:25.287Z,23.57
2023-02-14T17:29:53.273Z,23.40
2023-02-14T17:32:21.320Z,23.40
2023-02-14T17:34:49.737Z,22.50
2023-02-14T17:37:19.380Z,23.00
2023-02-14T17:39:47.375Z,23.87
2023-02-14T17:42:15.381Z,22.90
2023-02-14T17:44:44.766Z,24.80
2023-02-14T17:47:14.793Z,24.63
2023-02-14T17:49:42.796Z,24.63
2023-02-14T17:52:10.810Z,24.20
2023-02-14T17:54:40.592Z,23.97
2023-02-14T17:57:08.587Z,23.97
2023-02-14T17:59:37.019Z,23.37
2023-02-14T18:02:05.107Z,24.63
2023-02-14T18:04:34.890Z,23.57
2023-02-14T18:07:02.939Z,23.83
2023-02-14T18:09:31.042Z,24.20
2023-02-14T18:12:00.421Z,24.03
2023-02-14T18:14:28.586Z,25.70
2023-02-14T18:16:56.528Z,25.77
2023-02-14T18:19:24.472Z,24.30
2023-02-14T18:21:53.457Z,24.90
2023-02-14T18:24:21.930Z,25.60
2023-02-14T18:26:50.147Z,24.60
2023-02-14T18:29:19.471Z,25.63
2023-02-14T18:31:47.712Z,25.23
2023-02-14T18:34:15.823Z,24.60
2023-02-14T18:36:43.861Z,24.73
2023-02-14T18:39:12.226Z,24.97
2023-02-14T18:41:40.252Z,24.60
2023-02-14T18:44:08.506Z,25.90
2023-02-14T18:46:38.174Z,22.97
2023-02-14T18:49:08.385Z,23.10
2023-02-14T18:51:39.310Z,24.83
2023-02-14T18:54:08.150Z,22.73
2023-02-14T18:56:38.028Z,22.57
2023-02-14T18:59:08.721Z,24.37
2023-02-14T19:01:40.704Z,21.17
2023-02-14T19:04:12.047Z,21.23
2023-02-14T19:06:41.859Z,20.53
2023-02-14T19:09:12.549Z,20.40
2023-02-14T19:11:41.031Z,20.47
2023-02-14T19:14:10.920Z,20.10
2023-02-14T19:16:43.867Z,19.97
2023-02-14T19:19:12.210Z,42.87
2023-02-14T19:21:40.257Z,43.93
2023-02-14T19:24:09.094Z,45.13
2023-02-14T19:26:42.235Z,44.80
2023-02-14T19:29:12.565Z,45.17
2023-02-14T19:31:45.136Z,44.47
2023-02-14T19:34:18.050Z,45.90
2023-02-14T19:36:46.269Z,44.30
2023-02-14T19:39:14.645Z,44.87
2023-02-14T19:41:43.387Z,47.60
2023-02-14T19:44:14.258Z,45.90
2023-02-14T19:46:44.482Z,45.00
2023-02-14T19:49:15.439Z,21.07
2023-02-14T19:51:43.870Z,21.33
2023-02-14T19:54:12.681Z,20.60
2023-02-14T19:56:43.637Z,22.27
2023-02-14T19:59:14.363Z,19.77
2023-02-14T20:01:46.350Z,19.53
2023-02-14T20:04:16.593Z,20.40
2023-02-14T20:06:45.950Z,21.43
2023-02-14T20:09:15.796Z,20.43
2023-02-14T20:11:50.114Z,20.27
2023-02-14T20:14:19.866Z,19.83
2023-02-14T20:16:50.069Z,20.40
2023-02-14T20:19:20.227Z,20.20
2023-02-14T20:21:51.304Z,19.70
2023-02-14T20:24:21.512Z,20.23
2023-02-14T20:26:50.020Z,17.50
2023-02-14T20:29:19.706Z,18.47
2023-02-14T20:31:51.658Z,18.07
2023-02-14T20:34:20.396Z,18.33
2023-02-14T20:36:53.096Z,19.57
2023-02-14T20:39:24.259Z,18.53
2023-02-14T20:41:53.941Z,19.50
2023-02-14T20:44:22.614Z,19.70
2023-02-14T20:46:53.631Z,19.70
2023-02-14T20:49:22.799Z,18.90
2023-02-14T20:51:51.937Z,18.43
2023-02-14T20:54:21.346Z,17.90
2023-02-14T20:56:50.798Z,17.37
2023-02-14T20:59:24.374Z,19.30
2023-02-14T21:01:53.953Z,18.73
2023-02-14T21:04:22.014Z,17.43
2023-02-14T21:06:50.082Z,39.53
2023-02-14T21:09:20.466Z,38.87
2023-02-14T21:11:49.600Z,40.43
2023-02-14T21:14:18.132Z,40.07
2023-02-14T21:16:46.203Z,38.77
2023-02-14T21:19:17.654Z,40.93
2023-02-14T21:21:45.937Z,39.60
2023-02-14T21:24:15.898Z,39.67
2023-02-14T21:26:44.787Z,40.60
2023-02-14T21:29:12.776Z,40.40
2023-02-14T21:31:42.459Z,39.90
2023-02-14T21:34:10.770Z,17.10
2023-02-14T21:36:40.088Z,17.47
2023-02-14T21:39:08.707Z,17.23
2023-02-14T21:41:38.133Z,17.63
2023-02-14T21:44:07.165Z,17.50
2023-02-14T21:46:38.354Z,17.60
2023-02-14T21:49:24.738Z,17.60
2023-02-14T21:51:54.137Z,17.53
2023-02-14T21:54:22.434Z,17.97
2023-02-14T21:56:50.454Z,18.47
2023-02-14T21:59:18.684Z,18.00
2023-02-14T22:01:46.761Z,17.73
2023-02-14T22:04:14.845Z,17.60
2023-02-14T22:06:43.769Z,18.40
2023-02-14T22:09:15.112Z,17.80
2023-02-14T22:11:43.109Z,18.67
2023-02-14T22:14:11.277Z,18.20
2023-02-14T22:16:39.321Z,17.07
2023-02-14T22:19:08.897Z,17.80
2023-02-14T22:21:40.014Z,17.73
2023-02-14T22:24:08.189Z,18.40
2023-02-14T22:26:40.813Z,17.97
2023-02-14T22:29:10.920Z,17.13
2023-02-14T22:31:41.647Z,18.27
2023-02-14T22:34:11.854Z,17.90
2023-02-14T22:36:39.837Z,17.90
2023-02-14T22:39:09.461Z,18.60
2023-02-14T22:41:38.905Z,17.97
2023-02-14T22:44:07.918Z,17.67
2023-02-14T22:46:37.736Z,17.90
2023-02-14T22:49:06.584Z,18.33
2023-02-14T22:51:36.982Z,19.33
2023-02-14T22:54:07.300Z,19.13
2023-02-14T22:56:39.117Z,31.93
2023-02-14T22:59:09.192Z,40.67
2023-02-14T23:01:37.564Z,41.67
2023-02-14T23:04:06.489Z,40.37
2023-02-14T23:06:36.639Z,40.23
2023-02-14T23:09:05.668Z,40.57
2023-02-14T23:11:35.890Z,41.50
2023-02-14T23:14:23.688Z,42.67
2023-02-14T23:17:21.011Z,40.57
2023-02-14T23:20:06.972Z,39.83
2023-02-14T23:22:37.646Z,18.00
2023-02-14T23:25:08.669Z,18.10
2023-02-14T23:27:38.595Z,17.80
2023-02-14T23:30:09.905Z,17.77
2023-02-14T23:32:38.222Z,17.30
2023-02-14T23:35:07.006Z,19.50
2023-02-14T23:37:35.035Z,17.50
2023-02-14T23:40:03.930Z,17.37
2023-02-14T23:42:32.164Z,17.10
2023-02-14T23:45:20.303Z,17.63
2023-02-14T23:47:50.041Z,17.23
2023-02-14T23:50:18.295Z,18.20
2023-02-14T23:52:46.270Z,16.97
2023-02-14T23:55:14.469Z,17.60
2023-02-14T23:57:42.441Z,17.53
